Time;durP1;ratioP1;P1;durP2;ratioP2;P2;SDS_P1;SDS_P2;PMS_P1;PMS_P2;Temp;Humidity;BMP_temperature;BMP_pressure;BME280_temperature;BME280_humidity;BME280_pressure;Samples;Min_cycle;Max_cycle;Signal;HPM_P1;HPM_P2
2021/07/03 00:02:14;;;;;;;16.93;14.70;;;15.20;99.90;;;;;;5012592;28;20187;-66
2021/07/03 00:04:41;;;;;;;16.07;14.50;;;15.30;99.90;;;;;;5012713;28;20215;-67
2021/07/03 00:07:07;;;;;;;17.07;15.33;;;15.20;99.90;;;;;;5012286;28;20176;-66
2021/07/03 00:09:34;;;;;;;16.23;14.47;;;15.20;99.90;;;;;;5012569;28;20200;-66
2021/07/03 00:12:02;;;;;;;17.30;14.60;;;15.20;99.90;;;;;;5012336;28;20188;-66
2021/07/03 00:14:29;;;;;;;20.07;15.13;;;15.20;99.90;;;;;;5012499;28;20238;-66
2021/07/03 00:16:55;;;;;;;22.00;15.37;;;15.20;99.90;;;;;;5012200;28;20186;-66
2021/07/03 00:19:21;;;;;;;18.23;15.30;;;15.20;99.90;;;;;;5012039;28;20204;-66
2021/07/03 00:21:46;;;;;;;18.60;15.90;;;15.10;99.90;;;;;;5011955;28;20207;-66
2021/07/03 00:24:12;;;;;;;18.13;15.10;;;15.00;99.90;;;;;;5012426;28;20759;-66
2021/07/03 00:26:38;;;;;;;16.77;15.07;;;14.90;99.90;;;;;;5011859;28;20176;-66
2021/07/03 00:29:03;;;;;;;16.50;14.80;;;14.90;99.90;;;;;;5012219;28;20203;-66
2021/07/03 00:31:30;;;;;;;16.23;14.43;;;14.80;99.90;;;;;;5012084;28;20195;-66
2021/07/03 00:33:56;;;;;;;18.77;15.77;;;14.90;99.90;;;;;;5012135;28;20657;-66
2021/07/03 00:36:22;;;;;;;19.70;15.30;;;14.80;99.90;;;;;;5011835;28;20589;-66
2021/07/03 00:38:47;;;;;;;17.70;15.87;;;14.80;99.90;;;;;;5012024;28;20178;-66
2021/07/03 00:41:13;;;;;;;21.27;17.30;;;14.90;99.90;;;;;;5011894;28;20661;-66
2021/07/03 00:43:39;;;;;;;19.00;16.13;;;14.90;99.90;;;;;;5012084;28;20172;-66
2021/07/03 00:46:04;;;;;;;17.90;16.03;;;14.90;99.90;;;;;;5011725;28;20184;-66
2021/07/03 00:48:30;;;;;;;16.70;15.07;;;14.80;99.90;;;;;;5011826;28;20544;-67
2021/07/03 00:50:59;;;;;;;20.93;16.50;;;14.80;99.90;;;;;;5011718;28;20208;-66
2021/07/03 00:53:25;;;;;;;18.93;15.77;;;14.70;99.90;;;;;;5011942;28;20681;-66
2021/07/03 00:55:53;;;;;;;21.63;17.50;;;14.80;99.90;;;;;;5011643;28;20263;-66
2021/07/03 00:58:18;;;;;;;21.70;17.13;;;14.80;99.90;;;;;;5011584;28;20664;-66
2021/07/03 01:00:44;;;;;;;20.57;17.13;;;14.80;99.90;;;;;;5010601;28;20311;-66
2021/07/03 01:03:09;;;;;;;21.30;18.53;;;14.70;99.90;;;;;;5011734;28;20306;-66
2021/07/03 01:05:35;;;;;;;27.87;18.97;;;14.70;99.90;;;;;;5011816;28;20251;-66
2021/07/03 01:08:01;;;;;;;22.93;17.23;;;14.70;99.90;;;;;;5011287;28;20184;-66
2021/07/03 01:10:29;;;;;;;23.77;18.03;;;14.60;99.90;;;;;;5011793;28;20208;-66
2021/07/03 01:12:55;;;;;;;20.17;17.33;;;14.60;99.90;;;;;;5011541;28;20241;-66
2021/07/03 01:15:21;;;;;;;20.63;17.83;;;14.60;99.90;;;;;;5012002;28;20188;-66
2021/07/03 01:17:47;;;;;;;20.17;17.27;;;14.60;99.90;;;;;;5011093;28;20555;-66
2021/07/03 01:20:14;;;;;;;20.43;16.83;;;14.50;99.90;;;;;;5011516;28;20219;-66
2021/07/03 01:22:41;;;;;;;23.13;17.17;;;14.50;99.90;;;;;;5011377;28;20567;-66
2021/07/03 01:25:08;;;;;;;20.67;17.07;;;14.50;99.90;;;;;;5011687;28;20176;-66
2021/07/03 01:27:34;;;;;;;19.70;17.57;;;14.40;99.90;;;;;;5011000;28;20184;-66
2021/07/03 01:30:00;;;;;;;24.20;18.33;;;14.40;99.90;;;;;;5011573;28;20215;-66
2021/07/03 01:32:26;;;;;;;26.60;18.00;;;14.40;99.90;;;;;;5015202;28;20184;-66
2021/07/03 01:34:52;;;;;;;22.80;17.43;;;14.40;99.90;;;;;;5015267;28;20238;-66
2021/07/03 01:37:18;;;;;;;22.50;17.77;;;14.40;99.90;;;;;;5015171;28;20186;-66
2021/07/03 01:39:43;;;;;;;24.90;17.40;;;14.40;99.90;;;;;;5061480;22;20198;-64
2021/07/03 01:42:09;;;;;;;23.97;17.77;;;14.40;99.90;;;;;;5015262;28;20648;-64
2021/07/03 01:44:35;;;;;;;19.53;16.87;;;14.40;99.90;;;;;;5015448;28;20172;-64
2021/07/03 01:47:02;;;;;;;20.87;16.97;;;14.40;99.90;;;;;;4996458;28;20223;-64
2021/07/03 01:49:35;;;;;;;23.50;17.53;;;14.50;99.90;;;;;;4995496;28;20184;-64
2021/07/03 01:52:01;;;;;;;23.33;17.47;;;14.40;99.90;;;;;;5013911;28;20171;-64
2021/07/03 01:54:26;;;;;;;19.73;17.27;;;14.50;99.90;;;;;;5014899;28;20267;-64
2021/07/03 01:56:58;;;;;;;24.50;18.13;;;14.40;99.90;;;;;;5014523;28;20263;-64
2021/07/03 01:59:27;;;;;;;28.80;19.20;;;14.40;99.90;;;;;;5013938;28;20586;-64
2021/07/03 02:01:53;;;;;;;24.93;18.87;;;14.40;99.90;;;;;;5014921;28;20188;-64
2021/07/03 02:04:19;;;;;;;20.73;17.77;;;14.40;99.90;;;;;;5014975;28;20168;-66
2021/07/03 02:06:45;;;;;;;24.87;18.10;;;14.40;99.90;;;;;;5014504;28;20203;-67
2021/07/03 02:09:11;;;;;;;20.80;16.80;;;14.40;99.90;;;;;;5014827;28;20302;-66
2021/07/03 02:11:37;;;;;;;26.60;18.13;;;14.40;99.90;;;;;;5014670;28;20196;-66
2021/07/03 02:14:03;;;;;;;24.67;18.47;;;14.40;99.90;;;;;;5015729;28;20180;-67
2021/07/03 02:16:28;;;;;;;21.80;17.53;;;14.40;99.90;;;;;;5015953;28;20254;-67
2021/07/03 02:18:54;;;;;;;26.43;19.30;;;14.40;99.90;;;;;;5016976;28;20343;-66
2021/07/03 02:21:20;;;;;;;25.10;18.23;;;14.30;99.90;;;;;;5016655;28;20594;-67
2021/07/03 02:23:46;;;;;;;21.43;18.33;;;14.30;99.90;;;;;;5016741;28;20642;-68
2021/07/03 02:26:12;;;;;;;23.40;18.20;;;14.30;99.90;;;;;;5015647;28;20176;-67
2021/07/03 02:28:38;;;;;;;24.77;18.00;;;14.30;99.90;;;;;;5016373;28;20230;-67
2021/07/03 02:31:04;;;;;;;25.90;18.47;;;14.30;99.90;;;;;;5016504;28;20665;-66
2021/07/03 02:33:30;;;;;;;24.70;19.63;;;14.30;99.90;;;;;;5017092;28;20177;-67
2021/07/03 02:35:55;;;;;;;20.97;18.63;;;14.30;99.90;;;;;;5016281;28;20268;-68
2021/07/03 02:38:22;;;;;;;23.30;17.70;;;14.30;99.90;;;;;;5016526;28;20629;-68
2021/07/03 02:40:47;;;;;;;30.07;19.03;;;14.30;99.90;;;;;;5016076;28;20211;-68
2021/07/03 02:43:13;;;;;;;24.63;18.23;;;14.30;99.90;;;;;;5016754;28;20539;-68
2021/07/03 02:45:39;;;;;;;30.87;18.63;;;14.30;99.90;;;;;;5016019;28;20223;-68
2021/07/03 02:48:05;;;;;;;23.43;18.17;;;14.30;99.90;;;;;;5016133;28;20629;-67
2021/07/03 02:50:31;;;;;;;19.37;17.13;;;14.30;99.90;;;;;;5014623;28;20692;-68
2021/07/03 02:52:56;;;;;;;23.50;17.87;;;14.30;99.90;;;;;;5016050;28;20180;-68
2021/07/03 02:55:22;;;;;;;26.13;18.63;;;14.20;99.90;;;;;;5016216;28;20278;-68
2021/07/03 02:57:48;;;;;;;20.10;17.93;;;14.10;99.90;;;;;;5014474;28;20176;-67
2021/07/03 03:00:15;;;;;;;23.53;17.33;;;14.00;99.90;;;;;;5015804;28;20204;-68
2021/07/03 03:02:41;;;;;;;24.77;18.50;;;14.00;99.90;;;;;;5016799;28;20244;-69
2021/07/03 03:05:08;;;;;;;20.07;16.83;;;13.90;99.90;;;;;;5016008;28;20208;-67
2021/07/03 03:07:38;;;;;;;21.33;17.13;;;13.90;99.90;;;;;;5015161;28;20645;-67
2021/07/03 03:10:05;;;;;;;28.63;19.47;;;13.90;99.90;;;;;;5016165;28;20239;-69
2021/07/03 03:12:31;;;;;;;21.87;16.83;;;13.90;99.90;;;;;;5015604;28;20709;-67
2021/07/03 03:14:57;;;;;;;21.27;17.17;;;13.90;99.90;;;;;;5016327;28;20168;-68
2021/07/03 03:17:22;;;;;;;19.17;16.33;;;13.80;99.90;;;;;;5015745;28;20254;-68
2021/07/03 03:19:48;;;;;;;20.07;16.67;;;13.80;99.90;;;;;;5015632;28;20246;-70
2021/07/03 03:22:14;;;;;;;22.57;16.93;;;13.70;99.90;;;;;;5014895;28;20234;-67
2021/07/03 03:24:39;;;;;;;21.00;17.10;;;13.70;99.90;;;;;;5015582;28;20625;-67
2021/07/03 03:27:05;;;;;;;20.47;16.60;;;13.70;99.90;;;;;;5015663;28;20180;-67
2021/07/03 03:29:31;;;;;;;20.83;17.13;;;13.70;99.90;;;;;;5015279;28;20172;-67
2021/07/03 03:31:56;;;;;;;23.00;17.57;;;13.70;99.90;;;;;;5015137;28;20187;-67
2021/07/03 03:34:22;;;;;;;21.03;17.67;;;13.70;99.90;;;;;;5015267;28;20212;-66
2021/07/03 03:36:47;;;;;;;21.77;17.37;;;13.70;99.90;;;;;;5015096;28;20176;-69
2021/07/03 03:39:13;;;;;;;25.97;18.60;;;13.70;99.90;;;;;;5015541;28;20168;-67
2021/07/03 03:41:39;;;;;;;27.70;19.43;;;13.70;99.90;;;;;;5015188;28;20231;-69
2021/07/03 03:44:04;;;;;;;26.63;18.73;;;13.70;99.90;;;;;;5015754;28;20179;-68
2021/07/03 03:46:30;;;;;;;30.13;19.83;;;13.70;99.90;;;;;;5015146;28;20206;-70
2021/07/03 03:48:56;;;;;;;29.30;18.77;;;13.70;99.90;;;;;;5015607;28;20192;-65
2021/07/03 03:51:22;;;;;;;24.00;18.93;;;13.80;99.90;;;;;;5012752;28;20282;-65
2021/07/03 03:53:48;;;;;;;26.23;18.93;;;13.90;99.90;;;;;;5012211;28;20183;-65
2021/07/03 03:56:13;;;;;;;24.00;19.03;;;13.90;99.90;;;;;;5012724;28;20182;-64
2021/07/03 03:58:39;;;;;;;25.13;18.77;;;14.10;99.90;;;;;;5012673;28;20180;-66
2021/07/03 04:01:04;;;;;;;27.93;19.07;;;14.20;99.90;;;;;;5012542;28;20650;-65
2021/07/03 04:03:30;;;;;;;23.93;18.83;;;14.40;99.90;;;;;;5012622;28;20176;-65
2021/07/03 04:05:56;;;;;;;25.47;18.47;;;14.50;99.90;;;;;;5012263;28;20186;-64
2021/07/03 04:08:21;;;;;;;22.13;17.20;;;14.50;99.90;;;;;;5012672;28;20684;-65
2021/07/03 04:10:47;;;;;;;23.40;17.63;;;14.50;99.90;;;;;;5012579;28;20265;-65
2021/07/03 04:13:12;;;;;;;19.73;16.60;;;14.50;99.90;;;;;;5012692;28;20172;-65
2021/07/03 04:15:39;;;;;;;20.70;15.77;;;14.60;99.90;;;;;;5012225;28;20227;-64
2021/07/03 04:18:04;;;;;;;21.20;17.13;;;14.60;99.90;;;;;;5012478;28;20184;-65
2021/07/03 04:20:30;;;;;;;19.77;17.67;;;14.60;99.90;;;;;;5012265;28;20204;-65
2021/07/03 04:22:56;;;;;;;22.43;15.87;;;14.60;99.90;;;;;;5012568;28;20645;-64
2021/07/03 04:25:21;;;;;;;19.07;16.97;;;14.60;99.90;;;;;;5012262;28;20225;-65
2021/07/03 04:27:48;;;;;;;18.67;16.57;;;14.50;99.90;;;;;;5012337;28;20664;-65
2021/07/03 04:30:15;;;;;;;19.70;17.30;;;14.60;99.90;;;;;;5012047;28;20750;-65
2021/07/03 04:32:41;;;;;;;22.17;16.93;;;14.60;99.90;;;;;;5012099;28;20211;-65
2021/07/03 04:35:08;;;;;;;19.63;17.40;;;14.70;99.90;;;;;;5012335;28;20172;-65
2021/07/03 04:37:34;;;;;;;22.40;17.73;;;14.80;99.90;;;;;;5011907;28;20183;-65
2021/07/03 04:39:59;;;;;;;19.90;17.40;;;14.90;99.90;;;;;;5011890;28;20212;-64
2021/07/03 04:42:25;;;;;;;20.73;17.77;;;15.00;99.90;;;;;;5011970;28;20180;-65
2021/07/03 04:44:50;;;;;;;20.00;16.60;;;15.10;99.90;;;;;;5012143;28;20211;-65
2021/07/03 04:47:16;;;;;;;21.37;18.03;;;15.20;99.90;;;;;;5011538;28;20221;-65
2021/07/03 04:49:42;;;;;;;20.33;17.87;;;15.50;99.90;;;;;;5012004;28;20199;-65
2021/07/03 04:52:07;;;;;;;23.53;18.13;;;15.70;99.90;;;;;;5011660;28;20179;-65
2021/07/03 04:54:33;;;;;;;21.60;18.17;;;15.80;99.90;;;;;;5011989;28;20653;-65
2021/07/03 04:57:08;;;;;;;23.13;17.23;;;16.00;99.90;;;;;;5011494;28;20211;-64
2021/07/03 04:59:35;;;;;;;17.63;15.77;;;16.20;99.90;;;;;;5011728;28;20645;-64
2021/07/03 05:02:00;;;;;;;17.53;15.33;;;16.20;99.90;;;;;;5011525;28;20230;-65
2021/07/03 05:04:26;;;;;;;17.30;15.33;;;16.20;99.90;;;;;;5011762;28;20175;-65
2021/07/03 05:06:52;;;;;;;17.90;16.00;;;16.40;99.90;;;;;;5011425;28;20180;-64
2021/07/03 05:09:17;;;;;;;16.97;15.13;;;16.40;99.90;;;;;;5011755;28;20176;-65
2021/07/03 05:11:43;;;;;;;17.20;15.13;;;16.40;99.90;;;;;;5011626;28;20208;-65
2021/07/03 05:14:08;;;;;;;16.50;14.70;;;16.40;99.90;;;;;;5011627;28;20195;-65
2021/07/03 05:16:34;;;;;;;18.57;15.03;;;16.40;99.90;;;;;;5011258;28;20245;-65
2021/07/03 05:19:00;;;;;;;16.30;14.60;;;16.40;99.90;;;;;;5011600;28;20180;-64
2021/07/03 05:21:25;;;;;;;17.57;15.77;;;16.40;99.90;;;;;;5011340;28;20215;-64
2021/07/03 05:23:51;;;;;;;16.83;14.80;;;16.50;99.90;;;;;;5011709;28;20207;-65
2021/07/03 05:26:16;;;;;;;19.40;15.67;;;16.60;99.90;;;;;;5011286;28;20187;-65
2021/07/03 05:28:43;;;;;;;16.87;15.17;;;16.80;99.90;;;;;;5011486;28;20184;-65
2021/07/03 05:31:08;;;;;;;16.67;14.93;;;17.10;99.90;;;;;;5011281;28;20588;-65
2021/07/03 05:33:34;;;;;;;13.63;12.37;;;17.30;99.90;;;;;;5011705;28;20172;-65
2021/07/03 05:36:01;;;;;;;13.60;12.20;;;17.50;99.90;;;;;;5011029;28;20707;-64
2021/07/03 05:38:27;;;;;;;13.37;12.07;;;17.60;99.90;;;;;;5010668;28;20184;-65
2021/07/03 05:40:57;;;;;;;14.47;12.87;;;17.80;99.90;;;;;;5011166;28;20226;-65
2021/07/03 05:43:23;;;;;;;14.67;12.70;;;18.00;99.90;;;;;;5010865;28;20172;-65
2021/07/03 05:45:48;;;;;;;14.00;12.33;;;18.10;99.90;;;;;;5011067;28;20645;-65
2021/07/03 05:48:15;;;;;;;13.20;11.80;;;18.30;99.90;;;;;;5011486;28;20250;-64
2021/07/03 05:50:41;;;;;;;13.60;11.37;;;18.50;99.90;;;;;;5010995;28;20200;-65
2021/07/03 05:53:07;;;;;;;17.03;11.60;;;18.70;99.90;;;;;;5011565;28;20188;-65
2021/07/03 05:55:32;;;;;;;13.30;12.00;;;19.00;99.90;;;;;;5009418;28;20239;-64
2021/07/03 05:57:58;;;;;;;12.20;11.10;;;19.40;99.90;;;;;;5011055;28;20614;-65
2021/07/03 06:00:23;;;;;;;16.27;12.47;;;19.70;99.90;;;;;;5010890;28;20716;-65
2021/07/03 06:02:49;;;;;;;12.07;11.07;;;19.90;99.90;;;;;;5011171;28;20290;-65
2021/07/03 06:05:15;;;;;;;12.83;11.63;;;20.00;99.90;;;;;;5011028;28;20669;-65
2021/07/03 06:07:41;;;;;;;13.60;12.27;;;20.20;99.90;;;;;;5010709;28;20234;-65
2021/07/03 06:10:08;;;;;;;12.73;11.60;;;20.30;99.90;;;;;;5010950;28;20283;-65
2021/07/03 06:12:34;;;;;;;11.95;11.00;;;20.50;99.90;;;;;;5011132;28;20267;-65
2021/07/03 06:14:59;;;;;;;11.95;10.95;;;20.70;99.90;;;;;;5011057;28;20722;-65
2021/07/03 06:17:25;;;;;;;11.38;10.38;;;21.00;99.90;;;;;;5013130;28;20180;-65
2021/07/03 06:19:51;;;;;;;11.70;10.70;;;21.20;99.90;;;;;;5014218;28;20211;-64
2021/07/03 06:22:16;;;;;;;11.85;10.85;;;21.50;99.90;;;;;;5014763;28;20271;-65
2021/07/03 06:24:43;;;;;;;11.55;10.45;;;21.70;99.90;;;;;;5014307;28;20184;-65
2021/07/03 06:27:10;;;;;;;10.20;9.23;;;22.10;99.90;;;;;;5014495;28;20195;-65
2021/07/03 06:29:36;;;;;;;10.65;9.70;;;22.40;99.90;;;;;;5014236;28;20180;-66
2021/07/03 06:32:04;;;;;;;11.13;10.13;;;22.30;99.90;;;;;;5014491;28;20176;-65
2021/07/03 06:34:29;;;;;;;11.18;10.15;;;22.30;99.90;;;;;;5014206;28;20191;-65
2021/07/03 06:36:55;;;;;;;10.52;9.52;;;22.40;99.90;;;;;;5014293;28;20179;-66
2021/07/03 06:39:21;;;;;;;10.23;9.32;;;22.70;99.90;;;;;;5014172;28;20187;-66
2021/07/03 06:41:46;;;;;;;10.75;9.18;;;23.00;99.90;;;;;;5014020;28;20568;-65
2021/07/03 06:44:12;;;;;;;10.68;9.60;;;23.30;99.90;;;;;;5014168;28;20176;-65
2021/07/03 06:46:38;;;;;;;10.27;9.38;;;23.60;99.90;;;;;;5013924;28;20529;-64
2021/07/03 06:49:04;;;;;;;8.98;8.27;;;23.80;99.90;;;;;;5014076;28;20255;-66
2021/07/03 06:51:29;;;;;;;9.05;8.27;;;24.20;99.90;;;;;;5014139;28;20192;-66
2021/07/03 06:53:57;;;;;;;10.07;9.18;;;24.30;99.90;;;;;;5013889;28;20188;-66
2021/07/03 06:56:23;;;;;;;10.65;9.82;;;24.40;99.90;;;;;;5013896;28;20172;-66
2021/07/03 06:58:49;;;;;;;9.55;8.75;;;24.40;99.90;;;;;;5013632;28;20211;-65
2021/07/03 07:01:15;;;;;;;9.35;8.55;;;24.70;99.90;;;;;;5013825;28;20247;-65
2021/07/03 07:03:40;;;;;;;9.55;8.75;;;24.90;99.90;;;;;;5013619;28;20263;-65
2021/07/03 07:06:06;;;;;;;9.52;8.63;;;25.00;99.90;;;;;;5013771;28;20223;-65
2021/07/03 07:08:31;;;;;;;9.40;8.60;;;25.10;99.90;;;;;;5013667;28;20182;-65
2021/07/03 07:10:57;;;;;;;9.00;8.10;;;25.20;99.90;;;;;;5013818;28;20192;-65
2021/07/03 07:13:23;;;;;;;9.93;9.13;;;25.40;99.90;;;;;;5013785;28;20185;-65
2021/07/03 07:15:48;;;;;;;9.95;9.13;;;25.30;99.90;;;;;;5013059;28;20176;-65
2021/07/03 07:18:14;;;;;;;9.70;8.80;;;25.40;99.90;;;;;;5013683;28;20207;-66
2021/07/03 07:20:40;;;;;;;9.70;8.90;;;25.50;99.90;;;;;;5013105;28;20623;-65
2021/07/03 07:23:06;;;;;;;9.07;8.27;;;25.50;99.90;;;;;;5014058;28;20168;-65
2021/07/03 07:25:32;;;;;;;9.25;8.45;;;25.80;99.90;;;;;;5013683;28;20175;-66
2021/07/03 07:27:57;;;;;;;8.82;7.97;;;26.20;99.90;;;;;;5012023;28;20230;-65
2021/07/03 07:30:23;;;;;;;8.65;7.85;;;26.60;99.90;;;;;;5013173;28;20669;-65
2021/07/03 07:32:49;;;;;;;8.45;7.78;;;26.40;99.90;;;;;;5013274;28;20684;-65
2021/07/03 07:35:15;;;;;;;8.45;7.82;;;26.40;99.90;;;;;;5013352;28;20173;-65
2021/07/03 07:37:42;;;;;;;11.13;8.90;;;26.70;99.90;;;;;;5013026;28;20259;-66
2021/07/03 07:40:08;;;;;;;10.27;9.27;;;27.10;99.90;;;;;;5012860;28;20240;-65
2021/07/03 07:42:34;;;;;;;7.95;7.25;;;27.30;99.90;;;;;;5013146;28;20177;-66
2021/07/03 07:45:00;;;;;;;8.38;7.70;;;27.60;99.90;;;;;;5012153;28;20180;-65
2021/07/03 07:47:26;;;;;;;7.88;7.28;;;27.80;99.90;;;;;;5013063;28;20204;-66
2021/07/03 07:49:52;;;;;;;7.57;6.97;;;28.10;99.90;;;;;;5012790;28;20228;-65
2021/07/03 07:52:17;;;;;;;8.32;7.65;;;28.10;99.90;;;;;;5013098;28;20172;-66
2021/07/03 07:54:43;;;;;;;9.10;8.30;;;28.10;99.90;;;;;;5013070;28;20799;-65
2021/07/03 07:57:08;;;;;;;8.95;8.23;;;28.10;99.90;;;;;;5012424;28;20180;-66
2021/07/03 07:59:34;;;;;;;12.82;7.78;;;28.20;99.90;;;;;;5012512;28;20191;-65
2021/07/03 08:02:00;;;;;;;8.68;8.07;;;28.20;99.90;;;;;;5012934;28;20203;-65
2021/07/03 08:04:25;;;;;;;7.80;7.10;;;28.10;99.90;;;;;;5012834;28;20265;-65
2021/07/03 08:06:51;;;;;;;7.43;6.93;;;28.10;99.90;;;;;;5012570;28;20183;-66
2021/07/03 08:09:16;;;;;;;7.68;7.03;;;28.20;99.90;;;;;;5013191;28;20546;-65
2021/07/03 08:11:42;;;;;;;7.90;7.20;;;28.50;99.90;;;;;;5012690;28;20262;-65
2021/07/03 08:14:08;;;;;;;7.07;6.45;;;28.60;99.90;;;;;;5012715;28;20204;-65
2021/07/03 08:16:33;;;;;;;7.88;7.28;;;28.80;99.90;;;;;;5012058;28;20200;-66
2021/07/03 08:18:59;;;;;;;7.63;7.03;;;28.90;99.90;;;;;;5012444;28;20179;-66
2021/07/03 08:21:25;;;;;;;8.75;8.10;;;28.90;99.90;;;;;;5012480;28;20233;-66
2021/07/03 08:23:52;;;;;;;8.65;8.05;;;28.90;99.90;;;;;;5012143;28;20530;-65
2021/07/03 08:26:17;;;;;;;8.27;7.57;;;28.90;99.90;;;;;;5012536;28;20179;-65
2021/07/03 08:28:43;;;;;;;7.68;6.75;;;29.00;99.90;;;;;;5012069;28;20168;-66
2021/07/03 08:31:08;;;;;;;7.60;6.82;;;29.40;99.90;;;;;;5012661;28;20192;-65
2021/07/03 08:33:34;;;;;;;7.43;6.88;;;29.60;99.90;;;;;;5012312;28;20196;-66
2021/07/03 08:36:00;;;;;;;8.00;7.40;;;29.90;99.90;;;;;;5012054;28;20711;-65
2021/07/03 08:38:25;;;;;;;8.02;7.40;;;30.10;99.90;;;;;;5012330;28;20282;-65
2021/07/03 08:40:53;;;;;;;7.80;7.10;;;30.40;99.90;;;;;;5011285;28;20389;-65
2021/07/03 08:43:19;;;;;;;7.18;6.57;;;30.40;99.90;;;;;;5012025;28;20179;-66
2021/07/03 08:45:44;;;;;;;8.13;7.47;;;30.70;99.90;;;;;;5011807;28;20642;-65
2021/07/03 08:48:10;;;;;;;7.78;7.18;;;30.80;99.90;;;;;;5011671;28;20175;-65
2021/07/03 08:50:36;;;;;;;8.10;7.32;;;30.80;99.90;;;;;;5011552;28;20689;-64
2021/07/03 08:53:06;;;;;;;7.47;6.88;;;31.00;99.90;;;;;;5012253;28;20604;-64
2021/07/03 08:55:31;;;;;;;7.40;6.70;;;31.30;99.90;;;;;;5011645;28;20186;-64
2021/07/03 08:58:04;;;;;;;7.25;6.65;;;31.60;99.90;;;;;;5011837;28;20198;-64
2021/07/03 09:00:42;;;;;;;7.60;7.00;;;31.60;99.90;;;;;;5014555;28;20207;-64
2021/07/03 09:03:14;;;;;;;7.25;6.70;;;32.00;99.90;;;;;;5011483;28;20230;-64
2021/07/03 09:05:41;;;;;;;7.50;6.88;;;32.10;99.90;;;;;;4992564;28;20177;-64
2021/07/03 09:08:09;;;;;;;7.80;7.18;;;32.20;99.90;;;;;;5011274;28;20179;-64
2021/07/03 09:11:03;;;;;;;6.50;6.00;;;32.30;99.90;;;;;;5011123;28;20220;-64
2021/07/03 09:13:30;;;;;;;7.07;6.47;;;32.40;99.90;;;;;;5011762;28;20258;-64
2021/07/03 09:15:56;;;;;;;7.13;6.63;;;32.10;99.90;;;;;;5011381;28;20184;-64
2021/07/03 09:18:21;;;;;;;6.38;5.88;;;32.00;99.90;;;;;;5011366;28;20246;-64
2021/07/03 09:20:52;;;;;;;6.70;6.22;;;31.90;99.90;;;;;;5011583;28;20255;-64
2021/07/03 09:23:20;;;;;;;6.18;5.78;;;32.10;99.90;;;;;;5011429;28;20172;-64
2021/07/03 09:25:48;;;;;;;5.90;5.30;;;32.40;99.90;;;;;;5011269;28;20180;-64
2021/07/03 09:28:18;;;;;;;7.35;6.75;;;32.60;99.90;;;;;;5010227;28;20203;-64
2021/07/03 09:30:49;;;;;;;7.82;7.15;;;32.50;99.90;;;;;;5011011;28;20215;-64
2021/07/03 09:33:21;;;;;;;6.35;5.90;;;32.20;99.90;;;;;;5011444;28;20622;-64
2021/07/03 09:36:00;;;;;;;7.13;6.57;;;32.20;99.90;;;;;;5010471;28;20397;-64
2021/07/03 09:38:39;;;;;;;7.15;6.65;;;32.20;99.90;;;;;;5011553;28;20176;-64
2021/07/03 09:41:13;;;;;;;6.72;6.13;;;32.50;99.90;;;;;;5011022;28;20214;-64
2021/07/03 09:43:59;;;;;;;8.13;7.53;;;32.60;99.90;;;;;;5010681;28;20176;-64
2021/07/03 09:46:35;;;;;;;7.80;7.00;;;32.60;99.90;;;;;;5010797;28;20188;-64
2021/07/03 09:49:08;;;;;;;8.02;7.43;;;33.00;99.90;;;;;;5011925;28;20822;-64
2021/07/03 09:51:36;;;;;;;7.15;6.57;;;33.10;99.90;;;;;;5011943;28;20212;-65
2021/07/03 09:54:07;;;;;;;7.03;6.53;;;33.30;99.90;;;;;;5015547;28;20182;-64
2021/07/03 09:56:33;;;;;;;7.18;6.68;;;33.20;99.90;;;;;;5015381;28;20176;-64
2021/07/03 09:58:59;;;;;;;7.47;6.88;;;33.00;99.90;;;;;;5014983;28;20178;-64
2021/07/03 10:01:24;;;;;;;6.40;5.93;;;33.40;99.90;;;;;;5015111;28;20207;-65
2021/07/03 10:03:50;;;;;;;6.78;6.28;;;33.60;99.90;;;;;;5015050;28;20263;-64
2021/07/03 10:06:29;;;;;;;6.63;6.13;;;33.50;99.90;;;;;;5013994;28;20259;-64
2021/07/03 10:09:08;;;;;;;6.57;5.97;;;33.60;99.90;;;;;;5014879;28;20174;-64
2021/07/03 10:11:49;;;;;;;7.38;6.78;;;33.80;99.90;;;;;;5014873;28;20227;-64
2021/07/03 10:14:16;;;;;;;7.93;6.85;;;33.70;99.90;;;;;;5015143;28;20211;-64
2021/07/03 10:16:42;;;;;;;8.02;7.43;;;33.50;99.90;;;;;;5014659;28;20662;-64
2021/07/03 10:19:14;;;;;;;7.57;6.97;;;33.40;99.90;;;;;;5014857;28;20180;-64
2021/07/03 10:21:44;;;;;;;7.30;6.60;;;33.70;99.90;;;;;;5013490;28;20208;-64
2021/07/03 10:24:21;;;;;;;5.68;5.28;;;34.00;99.90;;;;;;5014808;28;20256;-64
2021/07/03 10:26:47;;;;;;;5.55;5.10;;;34.70;99.90;;;;;;5014414;28;20176;-64
2021/07/03 10:29:19;;;;;;;6.50;5.90;;;35.40;99.90;;;;;;5013484;28;20231;-64
2021/07/03 10:31:47;;;;;;;5.85;5.30;;;35.60;99.90;;;;;;5014610;28;20184;-64
2021/07/03 10:34:13;;;;;;;5.43;4.97;;;35.30;99.90;;;;;;5014672;28;20168;-64
2021/07/03 10:36:39;;;;;;;5.97;5.47;;;35.10;99.90;;;;;;5014025;28;20234;-64
2021/07/03 10:39:05;;;;;;;5.40;5.00;;;34.90;99.90;;;;;;5014617;28;20562;-65
2021/07/03 10:41:32;;;;;;;5.78;5.28;;;35.30;99.90;;;;;;5014067;28;20219;-65
2021/07/03 10:44:12;;;;;;;6.22;5.72;;;36.00;99.90;;;;;;5013682;28;20176;-65
2021/07/03 10:46:45;;;;;;;5.85;5.45;;;36.10;99.90;;;;;;5030609;28;20214;-64
2021/07/03 10:49:16;;;;;;;5.75;5.35;;;36.10;99.90;;;;;;5028498;28;20626;-64
2021/07/03 10:51:48;;;;;;;5.88;5.40;;;36.30;99.90;;;;;;5013931;28;20263;-64
2021/07/03 10:54:28;;;;;;;5.43;5.13;;;36.50;99.90;;;;;;5013422;28;20172;-65
2021/07/03 10:57:05;;;;;;;5.60;5.20;;;36.40;99.90;;;;;;5012480;28;20180;-64
2021/07/03 10:59:37;;;;;;;5.53;5.03;;;36.10;99.90;;;;;;5013953;28;20172;-64
2021/07/03 11:02:15;;;;;;;5.22;4.82;;;35.70;99.90;;;;;;5013757;28;20207;-64
2021/07/03 11:04:53;;;;;;;5.53;5.13;;;35.40;99.90;;;;;;5013650;28;20196;-65
2021/07/03 11:07:24;;;;;;;5.82;5.32;;;35.50;99.90;;;;;;4994011;28;20230;-65
2021/07/03 11:09:50;;;;;;;5.28;4.88;;;36.00;99.90;;;;;;4993614;28;20196;-65
2021/07/03 11:12:20;;;;;;;5.30;5.00;;;36.20;98.90;;;;;;5013774;28;20177;-64
2021/07/03 11:14:57;;;;;;;5.40;4.90;;;35.40;99.10;;;;;;5013458;28;20172;-65
2021/07/03 11:17:25;;;;;;;5.75;5.35;;;35.00;99.10;;;;;;4993882;28;20260;-65
2021/07/03 11:19:53;;;;;;;4.80;4.50;;;35.00;99.00;;;;;;4993636;28;20805;-65
2021/07/03 11:22:24;;;;;;;5.20;4.90;;;34.60;99.90;;;;;;5013108;28;20222;-65
2021/07/03 11:24:51;;;;;;;4.72;4.43;;;35.00;99.90;;;;;;5013387;28;20664;-65
2021/07/03 11:27:28;;;;;;;5.20;4.80;;;35.40;99.90;;;;;;5013347;28;20195;-65
2021/07/03 11:29:55;;;;;;;5.50;5.20;;;35.30;99.80;;;;;;5013403;28;20195;-65
2021/07/03 11:32:21;;;;;;;5.88;5.38;;;35.70;99.90;;;;;;5013061;28;20184;-65
2021/07/03 11:34:58;;;;;;;5.20;4.90;;;36.30;99.80;;;;;;5013220;28;20175;-65
2021/07/03 11:37:35;;;;;;;4.78;4.47;;;36.10;97.70;;;;;;5012789;28;20535;-65
2021/07/03 11:40:07;;;;;;;4.57;4.28;;;36.00;97.70;;;;;;5012988;28;20271;-64
2021/07/03 11:42:36;;;;;;;4.75;4.43;;;36.30;97.90;;;;;;5012643;28;20527;-65
2021/07/03 11:45:05;;;;;;;4.53;4.22;;;36.50;96.50;;;;;;5013074;28;20172;-64
2021/07/03 11:47:38;;;;;;;4.88;4.38;;;36.60;95.50;;;;;;5012508;28;20180;-65
2021/07/03 11:50:11;;;;;;;5.32;4.95;;;36.30;94.50;;;;;;5013382;28;20195;-65
2021/07/03 11:52:57;;;;;;;4.90;4.47;;;36.10;96.90;;;;;;5012503;28;20179;-65
2021/07/03 11:55:35;;;;;;;4.80;4.50;;;36.50;96.20;;;;;;5013104;28;20231;-65
2021/07/03 11:58:02;;;;;;;4.93;4.57;;;36.30;95.90;;;;;;4993197;28;20217;-64
2021/07/03 12:00:33;;;;;;;5.72;5.35;;;35.50;96.30;;;;;;5028208;28;20191;-67
2021/07/03 12:03:00;;;;;;;5.00;4.50;;;34.40;94.00;;;;;;5008942;28;20180;-66
2021/07/03 12:05:31;;;;;;;6.50;6.03;;;33.60;94.10;;;;;;5012769;28;20669;-66
2021/07/03 12:08:01;;;;;;;5.53;5.15;;;33.00;96.70;;;;;;5012175;28;20190;-66
2021/07/03 12:10:39;;;;;;;5.60;5.20;;;33.10;96.70;;;;;;5012474;28;20673;-66
2021/07/03 12:13:18;;;;;;;5.20;4.90;;;33.10;96.80;;;;;;5012616;28;20180;-66
2021/07/03 12:15:46;;;;;;;6.55;6.15;;;33.40;98.10;;;;;;5012093;28;20172;-66
2021/07/03 12:18:35;;;;;;;5.15;4.65;;;33.60;99.50;;;;;;5013169;28;20203;-67
2021/07/03 12:21:25;;;;;;;4.95;4.60;;;34.10;95.70;;;;;;5011974;28;20236;-66
2021/07/03 12:24:02;;;;;;;4.80;4.47;;;34.40;97.50;;;;;;5012463;28;20181;-66
2021/07/03 12:26:29;;;;;;;4.88;4.57;;;34.80;94.30;;;;;;5012031;28;20616;-67
2021/07/03 12:28:55;;;;;;;5.13;4.70;;;34.40;93.70;;;;;;5012191;28;20173;-66
2021/07/03 12:31:45;;;;;;;4.30;4.00;;;34.00;93.70;;;;;;5012094;28;20262;-66
2021/07/03 12:34:21;;;;;;;4.88;4.50;;;34.30;96.70;;;;;;4989685;28;20189;-66
2021/07/03 12:36:48;;;;;;;5.30;4.57;;;34.50;95.60;;;;;;4998578;28;20196;-66
2021/07/03 12:39:21;;;;;;;4.55;4.25;;;35.00;97.20;;;;;;5012139;28;20184;-66